createdAt,value
2022-12-05T00:05:00.878Z,32.71
2022-12-05T00:10:22.852Z,32.95
2022-12-05T00:15:44.467Z,32.67
2022-12-05T00:21:07.617Z,32.68
2022-12-05T00:26:31.210Z,32.69
2022-12-05T00:31:52.914Z,32.72
2022-12-05T00:37:14.645Z,33.07
2022-12-05T00:42:36.362Z,32.69
2022-12-05T00:47:58.095Z,33.10
2022-12-05T00:53:19.909Z,32.70
2022-12-05T00:58:42.597Z,32.96
2022-12-05T01:04:23.409Z,32.86
2022-12-05T01:09:45.073Z,32.73
2022-12-05T01:15:07.580Z,32.67
2022-12-05T01:20:29.263Z,33.00
2022-12-05T01:25:52.576Z,33.08
2022-12-05T01:31:21.636Z,33.10
2022-12-05T01:36:43.742Z,33.08
2022-12-05T01:42:06.278Z,33.16
2022-12-05T01:47:31.527Z,33.28
2022-12-05T01:52:53.263Z,33.18
2022-12-05T01:58:16.406Z,33.31
2022-12-05T02:03:38.521Z,33.01
2022-12-05T02:09:00.460Z,33.09
2022-12-05T02:14:24.861Z,33.33
2022-12-05T02:19:58.969Z,33.33
2022-12-05T02:25:26.612Z,33.13
2022-12-05T02:31:23.689Z,33.30
2022-12-05T02:37:04.167Z,33.46
2022-12-05T02:42:35.900Z,33.32
2022-12-05T02:47:59.953Z,33.07
2022-12-05T02:53:24.135Z,33.15
2022-12-05T02:58:51.305Z,33.39
2022-12-05T03:04:15.253Z,33.11
2022-12-05T03:09:42.771Z,33.31
2022-12-05T03:15:07.816Z,33.42
2022-12-05T03:20:35.002Z,33.49
2022-12-05T03:26:17.897Z,33.06
2022-12-05T03:32:08.981Z,33.35
2022-12-05T03:37:41.817Z,32.98
2022-12-05T03:43:25.397Z,33.03
2022-12-05T03:48:55.968Z,33.38
2022-12-05T03:54:23.905Z,33.25
2022-12-05T03:59:53.759Z,33.27
2022-12-05T04:05:26.646Z,33.34
2022-12-05T04:10:51.467Z,33.26
2022-12-05T04:16:38.354Z,33.42
2022-12-05T04:22:00.054Z,33.44
2022-12-05T04:27:33.929Z,33.39
2022-12-05T04:33:00.601Z,33.31
2022-12-05T04:38:32.005Z,33.58
2022-12-05T04:43:55.943Z,33.63
2022-12-05T04:49:25.307Z,33.28
2022-12-05T04:54:49.408Z,33.37
2022-12-05T05:00:11.558Z,33.54
2022-12-05T05:05:36.057Z,33.26
2022-12-05T05:11:16.493Z,33.57
2022-12-05T05:16:40.650Z,33.69
2022-12-05T05:22:02.409Z,33.54
2022-12-05T05:27:24.070Z,33.70
2022-12-05T05:32:45.929Z,33.51
2022-12-05T05:38:07.601Z,33.75
2022-12-05T05:43:29.374Z,33.88
2022-12-05T05:48:51.798Z,33.43
2022-12-05T05:54:13.524Z,33.61
2022-12-05T05:59:35.278Z,33.61
2022-12-05T06:04:57.011Z,33.38
2022-12-05T06:10:19.050Z,33.74
2022-12-05T06:15:41.025Z,33.58
2022-12-05T06:21:04.189Z,33.68
2022-12-05T06:26:26.060Z,33.65
2022-12-05T06:31:47.913Z,33.79
2022-12-05T06:37:09.703Z,33.85
2022-12-05T06:42:31.993Z,33.59
2022-12-05T06:47:54.020Z,33.48
2022-12-05T06:53:15.743Z,33.66
2022-12-05T06:58:37.598Z,33.83
2022-12-05T07:03:59.735Z,33.99
2022-12-05T07:09:44.536Z,33.60
2022-12-05T07:15:06.588Z,33.73
2022-12-05T07:20:43.171Z,33.63
2022-12-05T07:26:13.237Z,33.83
2022-12-05T07:31:36.769Z,33.96
2022-12-05T07:36:58.564Z,34.08
2022-12-05T07:42:20.596Z,33.67
2022-12-05T07:47:42.338Z,34.11
2022-12-05T07:53:04.265Z,34.12
2022-12-05T07:58:26.415Z,33.94
2022-12-05T08:03:48.676Z,34.00
2022-12-05T08:09:10.507Z,33.99
2022-12-05T08:14:32.264Z,33.73
2022-12-05T08:19:54.004Z,34.18
2022-12-05T08:25:15.817Z,33.99
2022-12-05T08:30:37.621Z,33.88
2022-12-05T08:36:04.444Z,34.13
2022-12-05T08:41:29.131Z,33.92
2022-12-05T08:46:50.871Z,34.15
2022-12-05T08:52:12.547Z,34.23
2022-12-05T08:57:34.289Z,34.14
2022-12-05T09:02:56.023Z,34.13
2022-12-05T09:08:17.792Z,34.25
2022-12-05T09:13:40.221Z,34.04
2022-12-05T09:19:02.038Z,34.13
2022-12-05T09:24:24.259Z,33.72
2022-12-05T09:29:45.968Z,34.29
2022-12-05T09:35:08.253Z,33.95
2022-12-05T09:40:30.796Z,33.95
2022-12-05T09:46:02.289Z,34.25
2022-12-05T09:51:25.904Z,34.40
2022-12-05T09:56:50.129Z,34.01
2022-12-05T10:02:31.337Z,34.21
2022-12-05T10:08:10.546Z,33.99
2022-12-05T10:13:47.559Z,34.28
2022-12-05T10:19:24.149Z,34.17
2022-12-05T10:24:52.236Z,34.51
2022-12-05T10:30:22.178Z,33.92
2022-12-05T10:35:44.133Z,34.22
2022-12-05T10:41:11.996Z,34.37
2022-12-05T10:46:33.863Z,34.15
2022-12-05T10:51:55.590Z,34.14
2022-12-05T10:57:30.239Z,34.23
2022-12-05T11:02:52.120Z,34.10
2022-12-05T11:08:41.741Z,34.06
2022-12-05T11:14:30.031Z,34.37
2022-12-05T11:19:51.700Z,34.20
2022-12-05T11:25:30.753Z,34.27
2022-12-05T11:31:19.849Z,34.64
2022-12-05T11:36:46.968Z,34.08
2022-12-05T11:42:43.431Z,34.48
2022-12-05T11:48:33.848Z,34.44
2022-12-05T11:54:30.399Z,34.63
2022-12-05T12:00:19.611Z,34.54
2022-12-05T12:05:59.287Z,34.22
2022-12-05T12:11:38.396Z,34.45
2022-12-05T12:17:29.288Z,34.65
2022-12-05T12:23:28.527Z,34.33
2022-12-05T12:29:01.997Z,34.54
2022-12-05T12:34:38.131Z,34.55
2022-12-05T12:40:18.747Z,34.47
2022-12-05T12:46:06.715Z,34.40
2022-12-05T12:51:33.753Z,34.58
2022-12-05T12:57:14.531Z,34.76
2022-12-05T13:03:12.181Z,34.46
2022-12-05T13:08:45.483Z,34.59
2022-12-05T13:14:14.464Z,34.73
2022-12-05T13:19:44.083Z,34.75
2022-12-05T13:25:06.281Z,34.58
2022-12-05T13:30:28.545Z,34.79
2022-12-05T13:36:12.885Z,34.61
2022-12-05T13:42:01.730Z,34.66
2022-12-05T13:47:29.044Z,34.48
2022-12-05T13:52:55.580Z,34.69
2022-12-05T13:58:17.244Z,34.72
2022-12-05T14:03:38.834Z,34.71
2022-12-05T14:09:00.980Z,34.85
2022-12-05T14:14:56.952Z,34.55
2022-12-05T14:20:49.715Z,34.63
2022-12-05T14:26:32.986Z,34.51
2022-12-05T14:32:24.035Z,34.61
2022-12-05T14:37:50.110Z,34.97
2022-12-05T14:43:23.377Z,34.79
2022-12-05T14:48:48.317Z,34.72
2022-12-05T14:54:18.964Z,35.09
2022-12-05T14:59:51.896Z,34.87
2022-12-05T15:05:32.171Z,35.07
2022-12-05T15:10:54.217Z,35.08
2022-12-05T15:16:19.801Z,34.91
2022-12-05T15:21:53.000Z,35.21
2022-12-05T15:27:16.808Z,34.99
2022-12-05T15:32:38.508Z,35.12
2022-12-05T15:38:13.786Z,34.95
2022-12-05T15:43:37.496Z,34.75
2022-12-05T15:49:01.354Z,34.86
2022-12-05T15:54:30.846Z,34.86
2022-12-05T16:00:04.487Z,35.23
2022-12-05T16:05:35.555Z,34.97
2022-12-05T16:10:57.413Z,34.92
2022-12-05T16:16:38.848Z,35.01
2022-12-05T16:22:20.820Z,34.95
2022-12-05T16:27:44.279Z,35.20
2022-12-05T16:33:16.501Z,35.32
2022-12-05T16:38:41.011Z,35.11
2022-12-05T16:44:10.784Z,35.05
2022-12-05T16:49:44.281Z,34.97
2022-12-05T16:55:11.523Z,33.80
2022-12-05T17:00:33.401Z,33.48
2022-12-05T17:05:56.192Z,32.96
2022-12-05T17:11:22.258Z,31.94
2022-12-05T17:16:44.476Z,32.34
2022-12-05T17:22:06.722Z,32.25
2022-12-05T17:27:28.491Z,32.24
2022-12-05T17:32:50.131Z,32.61
2022-12-05T17:38:12.047Z,32.49
2022-12-05T17:43:34.380Z,32.95
2022-12-05T17:48:56.056Z,33.10
2022-12-05T17:54:17.731Z,33.21
2022-12-05T17:59:39.421Z,33.23
2022-12-05T18:05:01.167Z,33.33
2022-12-05T18:10:23.852Z,33.44
2022-12-05T18:15:48.272Z,33.38
2022-12-05T18:21:12.398Z,32.78
2022-12-05T18:26:34.143Z,32.75
2022-12-05T18:31:56.032Z,32.34
2022-12-05T18:37:18.567Z,32.30
2022-12-05T18:42:40.425Z,31.76
2022-12-05T18:48:23.484Z,32.37
2022-12-05T18:53:51.926Z,32.82
2022-12-05T18:59:16.487Z,32.66
2022-12-05T19:04:38.191Z,32.73
2022-12-05T19:09:59.842Z,33.19
2022-12-05T19:15:21.532Z,33.60
2022-12-05T19:20:50.234Z,33.96
2022-12-05T19:26:12.066Z,34.03
2022-12-05T19:31:36.036Z,34.26
2022-12-05T19:36:57.705Z,34.54
2022-12-05T19:42:19.376Z,34.78
2022-12-05T19:47:41.077Z,34.97
2022-12-05T19:53:02.778Z,34.65
2022-12-05T19:58:24.631Z,35.02
2022-12-05T20:03:58.496Z,35.03
2022-12-05T20:09:21.978Z,34.50
2022-12-05T20:14:43.716Z,34.54
2022-12-05T20:20:06.086Z,34.71
2022-12-05T20:25:27.837Z,34.61
2022-12-05T20:30:49.678Z,34.75
2022-12-05T20:36:17.037Z,34.71
2022-12-05T20:41:38.784Z,34.64
2022-12-05T20:47:00.441Z,34.78
2022-12-05T20:52:22.092Z,34.59
2022-12-05T20:57:43.749Z,34.48
2022-12-05T21:03:05.498Z,34.17
2022-12-05T21:08:27.643Z,34.39
2022-12-05T21:13:49.628Z,34.32
2022-12-05T21:19:11.723Z,34.21
2022-12-05T21:24:33.457Z,34.42
2022-12-05T21:29:55.952Z,35.07
2022-12-05T21:35:17.743Z,34.94
2022-12-05T21:40:42.747Z,35.65
2022-12-05T21:46:05.910Z,35.45
2022-12-05T21:51:27.702Z,35.73
2022-12-05T21:56:49.421Z,35.69
2022-12-05T22:02:11.315Z,35.71
2022-12-05T22:07:33.037Z,35.99
2022-12-05T22:12:54.732Z,35.94
2022-12-05T22:18:16.478Z,36.24
2022-12-05T22:23:38.251Z,36.35
2022-12-05T22:28:59.922Z,36.26
2022-12-05T22:34:21.622Z,36.03
2022-12-05T22:39:43.258Z,35.97
2022-12-05T22:45:05.385Z,36.42
2022-12-05T22:50:27.070Z,36.41
2022-12-05T22:55:49.279Z,36.15
2022-12-05T23:01:16.861Z,36.24
2022-12-05T23:06:39.195Z,36.23
2022-12-05T23:12:00.987Z,36.32
2022-12-05T23:17:22.828Z,36.26
2022-12-05T23:22:44.660Z,36.23
2022-12-05T23:28:06.642Z,36.36
2022-12-05T23:33:29.026Z,36.45
2022-12-05T23:38:50.809Z,36.67
2022-12-05T23:44:12.677Z,36.69
2022-12-05T23:49:34.478Z,36.57
2022-12-05T23:54:56.297Z,36.25
